createdAt,value
2022-10-02T00:00:52.998Z,99866.34
2022-10-02T00:03:24.253Z,99877.84
2022-10-02T00:05:55.395Z,99885.03
2022-10-02T00:08:29.672Z,99895.69
2022-10-02T00:10:59.649Z,99895.25
2022-10-02T00:13:29.234Z,99908.69
2022-10-02T00:15:56.372Z,99906.06
2022-10-02T00:18:28.984Z,99911.28
2022-10-02T00:21:13.836Z,99918.72
2022-10-02T00:23:43.610Z,99921.75
2022-10-02T00:26:36.552Z,99906.28
2022-10-02T00:29:27.550Z,99901.87
2022-10-02T00:31:54.028Z,99905.34
2022-10-02T00:34:49.360Z,99910.75
2022-10-02T00:37:32.165Z,99916.00
2022-10-02T00:40:20.114Z,99914.91
2022-10-02T00:42:55.925Z,99918.38
2022-10-02T00:45:53.071Z,99911.59
2022-10-02T00:48:25.667Z,99909.06
2022-10-02T00:50:55.040Z,99919.84
2022-10-02T00:53:43.880Z,99920.69
2022-10-02T00:56:30.121Z,99924.19
2022-10-02T00:58:56.680Z,99936.72
2022-10-02T01:01:26.095Z,99932.41
2022-10-02T01:03:54.423Z,99921.62
2022-10-02T01:06:24.693Z,99940.69
2022-10-02T01:08:52.117Z,99918.88
2022-10-02T01:11:20.167Z,99939.66
2022-10-02T01:13:46.759Z,99937.75
2022-10-02T01:16:14.250Z,99925.44
2022-10-02T01:18:41.781Z,99957.53
2022-10-02T01:21:21.167Z,99959.00
2022-10-02T01:23:55.084Z,99959.59
2022-10-02T01:26:21.702Z,99957.22
2022-10-02T01:28:48.177Z,99960.16
2022-10-02T01:31:15.310Z,99959.44
2022-10-02T01:33:43.415Z,99963.34
2022-10-02T01:36:11.421Z,99968.84
2022-10-02T01:38:38.098Z,99979.25
2022-10-02T01:41:04.979Z,99959.19
2022-10-02T01:43:38.167Z,99954.31
2022-10-02T01:46:11.283Z,99975.44
2022-10-02T01:49:05.680Z,99992.06
2022-10-02T01:51:37.471Z,99991.00
2022-10-02T01:54:07.270Z,99992.00
2022-10-02T01:56:52.666Z,100000.44
2022-10-02T01:59:29.840Z,99997.97
2022-10-02T02:02:09.759Z,100016.53
2022-10-02T02:04:48.450Z,100022.75
2022-10-02T02:07:25.975Z,100026.94
2022-10-02T02:10:13.366Z,100025.84
2022-10-02T02:12:42.065Z,100026.53
2022-10-02T02:15:14.190Z,100032.25
2022-10-02T02:17:49.825Z,100032.00
2022-10-02T02:20:41.896Z,100023.50
2022-10-02T02:23:11.199Z,100031.56
2022-10-02T02:25:41.279Z,99992.44
2022-10-02T02:28:12.353Z,100030.91
2022-10-02T02:30:41.937Z,100031.94
2022-10-02T02:33:12.691Z,100034.81
2022-10-02T02:35:45.880Z,100012.91
2022-10-02T02:38:17.589Z,100014.72
2022-10-02T02:40:45.751Z,100040.59
2022-10-02T02:43:20.082Z,100040.09
2022-10-02T02:45:58.189Z,100032.72
2022-10-02T02:48:36.843Z,100042.22
2022-10-02T02:51:30.861Z,100042.88
2022-10-02T02:54:02.765Z,100070.03
2022-10-02T02:56:29.685Z,100054.59
2022-10-02T02:59:04.359Z,100068.53
2022-10-02T03:01:31.012Z,100074.22
2022-10-02T03:03:57.323Z,100055.88
2022-10-02T03:06:26.430Z,100049.66
2022-10-02T03:08:53.665Z,100086.22
2022-10-02T03:11:35.575Z,100085.00
2022-10-02T03:14:39.519Z,100087.28
2022-10-02T03:17:32.149Z,100096.00
2022-10-02T03:20:13.833Z,100104.66
2022-10-02T03:22:53.121Z,100107.50
2022-10-02T03:25:22.577Z,100101.59
2022-10-02T03:28:13.515Z,100131.63
2022-10-02T03:30:41.582Z,100131.72
2022-10-02T03:33:10.708Z,100133.59
2022-10-02T03:35:37.912Z,100128.37
2022-10-02T03:38:06.084Z,100144.19
2022-10-02T03:40:32.419Z,100137.84
2022-10-02T03:42:58.993Z,100134.94
2022-10-02T03:45:49.476Z,100150.22
2022-10-02T03:48:13.229Z,100151.59
2022-10-02T03:50:39.739Z,100132.06
2022-10-02T03:53:15.002Z,100148.72
2022-10-02T03:55:46.902Z,100163.03
2022-10-02T03:58:17.566Z,100170.88
2022-10-02T04:01:02.443Z,100168.88
2022-10-02T04:03:38.657Z,100173.47
2022-10-02T04:06:23.676Z,100171.72
2022-10-02T04:08:53.135Z,100174.53
2022-10-02T04:11:44.141Z,100171.16
2022-10-02T04:14:35.945Z,100148.81
2022-10-02T04:17:16.016Z,100175.13
2022-10-02T04:20:05.360Z,100181.03
2022-10-02T04:22:39.867Z,100181.66
2022-10-02T04:25:13.395Z,100167.16
2022-10-02T04:27:48.199Z,100190.78
2022-10-02T04:30:16.417Z,100198.59
2022-10-02T04:32:42.857Z,100193.91
2022-10-02T04:35:30.971Z,100197.56
2022-10-02T04:38:45.627Z,100199.22
2022-10-02T04:41:36.508Z,100197.56
2022-10-02T04:44:24.398Z,100211.56
2022-10-02T04:47:07.997Z,100222.53
2022-10-02T04:50:05.585Z,100186.78
2022-10-02T04:53:12.464Z,100220.50
2022-10-02T04:56:19.203Z,100224.13
2022-10-02T04:58:53.693Z,100211.47
2022-10-02T05:01:43.381Z,100208.06
2022-10-02T05:04:48.693Z,100217.91
2022-10-02T05:07:21.221Z,100213.87
2022-10-02T05:09:58.353Z,100221.19
2022-10-02T05:12:58.625Z,100210.81
2022-10-02T05:16:16.046Z,100215.06
2022-10-02T05:19:00.495Z,100206.41
2022-10-02T05:21:26.681Z,100201.47
2022-10-02T05:24:19.039Z,100192.31
2022-10-02T05:27:23.040Z,100176.22
2022-10-02T05:30:19.916Z,100159.22
2022-10-02T05:33:04.887Z,100189.91
2022-10-02T05:35:47.178Z,100201.09
2022-10-02T05:38:25.139Z,100208.94
2022-10-02T05:41:04.355Z,100225.16
2022-10-02T05:43:53.891Z,100227.53
2022-10-02T05:46:20.358Z,100233.78
2022-10-02T05:48:52.554Z,100234.75
2022-10-02T05:51:26.081Z,100228.06
2022-10-02T05:54:24.411Z,100225.34
2022-10-02T05:57:20.571Z,100229.31
2022-10-02T06:00:06.451Z,100236.69
2022-10-02T06:02:41.292Z,100238.84
2022-10-02T06:05:36.907Z,100250.34
2022-10-02T06:08:04.310Z,100252.25
2022-10-02T06:10:38.972Z,100250.72
2022-10-02T06:13:11.391Z,100254.06
2022-10-02T06:16:13.756Z,100262.88
2022-10-02T06:18:42.215Z,100245.81
2022-10-02T06:21:33.313Z,100259.19
2022-10-02T06:24:04.311Z,100263.72
2022-10-02T06:26:46.133Z,100267.31
2022-10-02T06:29:19.807Z,100264.94
2022-10-02T06:31:59.704Z,100270.94
2022-10-02T06:34:26.579Z,100273.31
2022-10-02T06:37:18.423Z,100259.47
2022-10-02T06:39:49.582Z,100282.03
2022-10-02T06:42:28.659Z,100282.38
2022-10-02T06:45:07.152Z,100285.44
2022-10-02T06:47:57.538Z,100271.34
2022-10-02T06:50:43.470Z,100284.25
2022-10-02T06:53:31.604Z,100293.88
2022-10-02T06:56:32.036Z,100294.47
2022-10-02T06:59:05.960Z,100295.97
2022-10-02T07:01:41.417Z,100285.09
2022-10-02T07:04:31.261Z,100293.59
2022-10-02T07:07:19.408Z,100293.25
2022-10-02T07:10:15.049Z,100289.91
2022-10-02T07:12:48.095Z,100288.75
2022-10-02T07:15:45.813Z,100292.31
2022-10-02T07:18:21.251Z,100289.97
2022-10-02T07:21:01.899Z,100294.59
2022-10-02T07:23:46.376Z,100295.94
2022-10-02T07:26:44.343Z,100294.75
2022-10-02T07:29:24.015Z,100296.59
2022-10-02T07:32:10.934Z,100301.69
2022-10-02T07:35:00.905Z,100297.78
2022-10-02T07:37:56.651Z,100304.66
2022-10-02T07:40:29.032Z,100307.28
2022-10-02T07:43:33.269Z,100300.44
2022-10-02T07:46:17.851Z,100312.22
2022-10-02T07:48:53.689Z,100288.66
2022-10-02T07:51:44.561Z,100300.56
2022-10-02T07:54:29.077Z,100307.81
2022-10-02T07:56:59.308Z,100305.13
2022-10-02T07:59:26.122Z,100311.63
2022-10-02T08:01:52.749Z,100302.00
2022-10-02T08:04:34.634Z,100322.44
2022-10-02T08:07:04.369Z,100320.88
2022-10-02T08:09:35.328Z,100318.91
2022-10-02T08:12:09.185Z,100316.16
2022-10-02T08:14:44.686Z,100311.19
2022-10-02T08:17:23.183Z,100320.22
2022-10-02T08:19:51.001Z,100316.56
2022-10-02T08:22:31.056Z,100307.81
2022-10-02T08:25:00.945Z,100324.63
2022-10-02T08:27:45.095Z,100331.81
2022-10-02T08:30:12.881Z,100341.72
2022-10-02T08:32:39.164Z,100338.53
2022-10-02T08:35:13.209Z,100337.03
2022-10-02T08:37:54.740Z,100349.25
2022-10-02T08:40:49.777Z,100350.88
2022-10-02T08:43:31.743Z,100350.97
2022-10-02T08:46:24.150Z,100348.25
2022-10-02T08:49:02.395Z,100337.97
2022-10-02T08:51:53.151Z,100325.91
2022-10-02T08:54:57.134Z,100340.44
2022-10-02T08:57:35.371Z,100342.28
2022-10-02T09:00:25.251Z,100338.87
2022-10-02T09:03:09.905Z,100347.75
2022-10-02T09:05:39.425Z,100351.91
2022-10-02T09:08:39.643Z,100357.56
2022-10-02T09:11:31.561Z,100348.66
2022-10-02T09:14:10.427Z,100349.94
2022-10-02T09:16:52.616Z,100353.84
2022-10-02T09:19:40.255Z,100348.72
2022-10-02T09:22:25.589Z,100349.56
2022-10-02T09:25:11.956Z,100350.72
2022-10-02T09:27:41.310Z,100342.37
2022-10-02T09:30:32.827Z,100355.37
2022-10-02T09:33:30.423Z,100348.53
2022-10-02T09:36:11.683Z,100355.31
2022-10-02T09:39:00.279Z,100347.03
2022-10-02T09:41:48.104Z,100346.38
2022-10-02T09:44:37.813Z,100341.41
2022-10-02T09:47:09.901Z,100334.78
2022-10-02T09:49:57.430Z,100322.63
2022-10-02T09:52:42.965Z,100323.22
2022-10-02T09:55:36.711Z,100321.16
2022-10-02T09:58:45.127Z,100317.63
2022-10-02T10:01:43.468Z,100321.16
2022-10-02T10:04:21.970Z,100313.72
2022-10-02T10:07:06.895Z,100315.53
2022-10-02T10:09:39.195Z,100310.28
2022-10-02T10:12:27.209Z,100315.31
2022-10-02T10:15:38.304Z,100314.47
2022-10-02T10:18:42.373Z,100317.84
2022-10-02T10:21:40.264Z,100324.34
2022-10-02T10:24:15.480Z,100316.91
2022-10-02T10:27:19.595Z,100317.03
2022-10-02T10:30:13.909Z,100314.06
2022-10-02T10:33:08.522Z,100306.66
2022-10-02T10:36:02.768Z,100302.06
2022-10-02T10:38:40.088Z,100314.25
2022-10-02T10:41:21.483Z,100298.63
2022-10-02T10:44:06.238Z,100296.69
2022-10-02T10:46:51.123Z,100303.25
2022-10-02T10:50:03.654Z,100294.00
2022-10-02T10:52:35.825Z,100284.81
2022-10-02T10:55:08.239Z,100295.25
2022-10-02T10:57:51.986Z,100290.28
2022-10-02T11:00:21.387Z,100291.13
2022-10-02T11:02:54.644Z,100284.81
2022-10-02T11:05:43.454Z,100277.81
2022-10-02T11:08:40.444Z,100281.19
2022-10-02T11:11:31.568Z,100277.28
2022-10-02T11:14:16.379Z,100270.72
2022-10-02T11:17:20.110Z,100272.19
2022-10-02T11:20:08.644Z,100275.59
2022-10-02T11:23:05.809Z,100260.47
2022-10-02T11:26:13.096Z,100271.13
2022-10-02T11:28:52.213Z,100264.25
2022-10-02T11:31:47.020Z,100275.22
2022-10-02T11:34:33.563Z,100276.09
2022-10-02T11:37:25.959Z,100264.97
2022-10-02T11:40:16.964Z,100261.97
2022-10-02T11:42:55.919Z,100262.41
2022-10-02T11:45:34.533Z,100249.72
2022-10-02T11:48:12.353Z,100257.22
2022-10-02T11:51:12.873Z,100241.22
2022-10-02T11:53:54.700Z,100252.06
2022-10-02T11:56:38.075Z,100244.03
2022-10-02T11:59:19.837Z,100237.63
2022-10-02T12:01:56.718Z,100227.81
2022-10-02T12:04:40.660Z,100229.12
2022-10-02T12:07:12.981Z,100236.53
2022-10-02T12:10:18.674Z,100232.09
2022-10-02T12:13:02.788Z,100217.78
2022-10-02T12:15:47.403Z,100217.34
2022-10-02T12:18:28.804Z,100211.66
2022-10-02T12:21:41.387Z,100221.31
2022-10-02T12:24:44.792Z,100213.16
2022-10-02T12:27:17.344Z,100204.38
2022-10-02T12:30:00.766Z,100207.78
2022-10-02T12:32:37.467Z,100198.84
2022-10-02T12:35:17.882Z,100191.22
2022-10-02T12:38:10.157Z,100195.47
2022-10-02T12:41:03.310Z,100189.84
2022-10-02T12:43:46.099Z,100191.75
2022-10-02T12:47:00.421Z,100194.31
2022-10-02T12:49:58.321Z,100189.31
2022-10-02T12:52:30.720Z,100190.50
2022-10-02T12:55:33.097Z,100195.16
2022-10-02T12:58:05.018Z,100187.16
2022-10-02T13:00:46.096Z,100192.47
2022-10-02T13:03:41.838Z,100173.91
2022-10-02T13:06:32.692Z,100174.03
2022-10-02T13:09:06.302Z,100175.03
2022-10-02T13:12:13.291Z,100178.44
2022-10-02T13:14:39.559Z,100179.91
2022-10-02T13:17:28.976Z,100178.63
2022-10-02T13:20:12.378Z,100172.78
2022-10-02T13:23:04.832Z,100164.81
2022-10-02T13:25:44.167Z,100160.47
2022-10-02T13:28:29.045Z,100160.19
2022-10-02T13:30:55.255Z,100161.09
2022-10-02T13:33:56.661Z,100164.81
2022-10-02T13:36:49.302Z,100161.22
2022-10-02T13:39:34.083Z,100166.03
2022-10-02T13:42:09.311Z,100156.78
2022-10-02T13:45:00.631Z,100147.69
2022-10-02T13:47:41.963Z,100157.50
2022-10-02T13:50:20.891Z,100150.34
2022-10-02T13:53:16.700Z,100166.03
2022-10-02T13:55:46.983Z,100166.91
2022-10-02T13:58:41.272Z,100158.75
2022-10-02T14:01:24.328Z,100159.69
2022-10-02T14:04:00.188Z,100158.97
2022-10-02T14:06:32.169Z,100156.38
2022-10-02T14:09:20.164Z,100162.56
2022-10-02T14:11:49.021Z,100170.38
2022-10-02T14:14:18.755Z,100167.59
2022-10-02T14:17:31.709Z,100178.66
2022-10-02T14:20:19.027Z,100166.37
2022-10-02T14:22:54.668Z,100165.38
2022-10-02T14:26:25.933Z,100162.22
2022-10-02T14:29:11.034Z,100167.19
2022-10-02T14:31:40.775Z,100164.38
2022-10-02T14:34:46.372Z,100162.56
2022-10-02T14:37:28.104Z,100158.41
2022-10-02T14:39:55.868Z,100163.56
2022-10-02T14:43:00.005Z,100163.38
2022-10-02T14:45:54.127Z,100153.75
2022-10-02T14:48:45.975Z,100157.06
2022-10-02T14:51:21.769Z,100157.06
2022-10-02T14:54:53.022Z,100144.16
2022-10-02T14:57:22.119Z,100151.59
2022-10-02T14:59:48.556Z,100152.69
2022-10-02T15:02:36.601Z,100147.31
2022-10-02T15:05:17.060Z,100147.91
2022-10-02T15:07:43.331Z,100144.91
2022-10-02T15:10:33.231Z,100134.94
2022-10-02T15:13:09.904Z,100142.31
2022-10-02T15:16:14.928Z,100145.25
2022-10-02T15:18:47.854Z,100141.56
2022-10-02T15:21:30.581Z,100132.59
2022-10-02T15:23:58.477Z,100132.13
2022-10-02T15:26:31.849Z,100130.62
2022-10-02T15:29:01.152Z,100136.06
2022-10-02T15:32:05.441Z,100136.03
2022-10-02T15:34:53.633Z,100136.94
2022-10-02T15:37:47.596Z,100131.47
2022-10-02T15:40:24.318Z,100126.97
2022-10-02T15:42:59.181Z,100130.16
2022-10-02T15:46:00.441Z,100109.78
2022-10-02T15:48:48.999Z,100131.59
2022-10-02T15:51:43.786Z,100137.31
2022-10-02T15:54:22.481Z,100132.19
2022-10-02T15:57:07.991Z,100126.13
2022-10-02T15:59:49.712Z,100133.00
2022-10-02T16:02:53.721Z,100125.69
2022-10-02T16:05:20.157Z,100127.84
2022-10-02T16:08:05.099Z,100125.16
2022-10-02T16:11:15.783Z,100125.22
2022-10-02T16:14:02.060Z,100129.72
2022-10-02T16:16:39.034Z,100138.41
2022-10-02T16:19:36.843Z,100132.63
2022-10-02T16:22:19.954Z,100130.22
2022-10-02T16:24:53.063Z,100133.84
2022-10-02T16:27:30.333Z,100127.88
2022-10-02T16:30:12.471Z,100131.69
2022-10-02T16:32:51.299Z,100112.28
2022-10-02T16:36:14.776Z,100137.94
2022-10-02T16:38:48.466Z,100139.59
2022-10-02T16:41:38.651Z,100146.69
2022-10-02T16:44:30.178Z,100143.94
2022-10-02T16:47:18.314Z,100143.13
2022-10-02T16:49:59.468Z,100146.75
2022-10-02T16:52:39.200Z,100131.78
2022-10-02T16:55:12.991Z,100147.34
2022-10-02T16:57:39.158Z,100145.59
2022-10-02T17:00:10.695Z,100143.06
2022-10-02T17:02:36.881Z,100143.78
2022-10-02T17:05:21.698Z,100144.34
2022-10-02T17:08:08.555Z,100139.91
2022-10-02T17:10:46.378Z,100139.50
2022-10-02T17:13:28.389Z,100135.16
2022-10-02T17:16:11.579Z,100090.41
2022-10-02T17:18:45.720Z,100127.41
2022-10-02T17:21:22.133Z,100146.28
2022-10-02T17:24:16.685Z,100137.41
2022-10-02T17:26:49.419Z,100146.72
2022-10-02T17:29:47.890Z,100126.88
2022-10-02T17:32:33.716Z,100141.84
2022-10-02T17:35:00.266Z,100144.88
2022-10-02T17:38:04.300Z,100144.34
2022-10-02T17:40:41.247Z,100151.25
2022-10-02T17:43:21.600Z,100130.47
2022-10-02T17:46:01.234Z,100143.25
2022-10-02T17:49:08.421Z,100138.91
2022-10-02T17:51:52.677Z,100144.63
2022-10-02T17:54:55.707Z,100117.41
2022-10-02T17:57:32.239Z,100149.88
2022-10-02T18:00:14.936Z,100138.22
2022-10-02T18:03:26.410Z,100131.84
2022-10-02T18:05:55.504Z,100137.12
2022-10-02T18:08:45.376Z,100127.12
2022-10-02T18:11:33.947Z,100129.06
2022-10-02T18:14:28.786Z,100128.34
2022-10-02T18:17:03.903Z,100121.69
2022-10-02T18:19:44.419Z,100115.16
2022-10-02T18:22:32.060Z,100127.63
2022-10-02T18:25:23.593Z,100129.84
2022-10-02T18:27:56.747Z,100132.59
2022-10-02T18:30:24.830Z,100135.31
2022-10-02T18:33:00.328Z,100133.56
2022-10-02T18:35:50.319Z,100128.41
2022-10-02T18:38:54.400Z,100127.03
2022-10-02T18:41:33.127Z,100124.16
2022-10-02T18:44:15.621Z,100127.31
2022-10-02T18:47:04.528Z,100119.94
2022-10-02T18:49:40.062Z,100124.25
2022-10-02T18:52:21.448Z,100117.56
2022-10-02T18:55:09.889Z,100128.84
2022-10-02T18:58:08.746Z,100127.47
2022-10-02T19:01:06.208Z,100121.72
2022-10-02T19:03:54.702Z,100133.78
2022-10-02T19:06:28.452Z,100133.16
2022-10-02T19:09:11.497Z,100128.25
2022-10-02T19:11:46.871Z,100128.06
2022-10-02T19:14:36.806Z,100126.38
2022-10-02T19:17:12.128Z,100128.19
2022-10-02T19:19:40.538Z,100117.41
2022-10-02T19:22:14.732Z,100127.88
2022-10-02T19:24:42.861Z,100112.72
2022-10-02T19:27:16.944Z,100125.75
2022-10-02T19:29:56.342Z,100108.78
2022-10-02T19:32:41.584Z,100124.16
2022-10-02T19:35:15.738Z,100119.41
2022-10-02T19:37:43.291Z,100123.94
2022-10-02T19:40:23.660Z,100122.22
2022-10-02T19:43:04.251Z,100112.06
2022-10-02T19:45:32.715Z,100112.84
2022-10-02T19:48:07.170Z,100118.47
2022-10-02T19:50:51.604Z,100106.31
2022-10-02T19:54:04.904Z,100107.88
2022-10-02T19:56:41.599Z,100108.44
2022-10-02T19:59:15.048Z,100080.59
2022-10-02T20:02:04.013Z,100094.91
2022-10-02T20:04:31.974Z,100108.03
2022-10-02T20:06:59.793Z,100104.00
2022-10-02T20:09:36.416Z,100108.91
2022-10-02T20:12:06.092Z,100069.16
2022-10-02T20:14:49.318Z,100115.59
2022-10-02T20:17:17.788Z,100113.25
2022-10-02T20:19:51.848Z,100095.81
2022-10-02T20:22:49.063Z,100094.13
2022-10-02T20:25:28.848Z,100078.06
2022-10-02T20:28:02.920Z,100104.38
2022-10-02T20:30:41.663Z,100104.87
2022-10-02T20:33:14.256Z,100085.13
2022-10-02T20:35:45.070Z,100106.69
2022-10-02T20:38:18.233Z,100098.31
2022-10-02T20:40:46.762Z,100099.84
2022-10-02T20:43:18.196Z,100104.38
2022-10-02T20:46:21.459Z,100098.41
2022-10-02T20:49:08.442Z,100091.25
2022-10-02T20:51:56.668Z,100089.31
2022-10-02T20:54:42.032Z,100089.69
2022-10-02T20:57:49.278Z,100095.56
2022-10-02T21:00:22.371Z,100096.75
2022-10-02T21:03:07.093Z,100089.06
2022-10-02T21:06:01.996Z,100092.16
2022-10-02T21:09:02.488Z,100091.09
2022-10-02T21:12:06.067Z,100089.66
2022-10-02T21:14:38.093Z,100087.31
2022-10-02T21:17:07.710Z,100085.41
2022-10-02T21:20:01.478Z,100081.22
2022-10-02T21:22:55.661Z,100094.91
2022-10-02T21:25:37.197Z,100101.09
2022-10-02T21:28:41.326Z,100097.25
2022-10-02T21:31:15.208Z,100089.41
2022-10-02T21:34:00.608Z,100093.56
2022-10-02T21:36:41.629Z,100085.59
2022-10-02T21:39:29.576Z,100083.94
2022-10-02T21:42:18.592Z,100083.44
2022-10-02T21:45:30.475Z,100074.03
2022-10-02T21:48:21.852Z,100078.03
2022-10-02T21:51:01.931Z,100078.72
2022-10-02T21:53:57.603Z,100075.59
2022-10-02T21:56:43.034Z,100070.69
2022-10-02T21:59:30.270Z,100065.38
2022-10-02T22:02:18.351Z,100058.31
2022-10-02T22:04:59.774Z,100051.53
2022-10-02T22:07:41.151Z,100040.72
2022-10-02T22:10:26.366Z,100021.75
2022-10-02T22:13:27.397Z,100035.31
2022-10-02T22:16:12.636Z,100039.25
2022-10-02T22:18:42.336Z,100037.56
2022-10-02T22:21:22.313Z,100033.53
2022-10-02T22:24:13.345Z,100010.88
2022-10-02T22:27:01.814Z,100028.41
2022-10-02T22:29:38.086Z,100022.34
2022-10-02T22:32:50.879Z,100020.91
2022-10-02T22:35:26.088Z,100020.91
2022-10-02T22:38:04.650Z,100024.22
2022-10-02T22:40:47.614Z,100024.84
2022-10-02T22:43:27.290Z,100023.72
2022-10-02T22:46:07.905Z,100035.28
2022-10-02T22:48:47.435Z,100034.34
2022-10-02T22:51:22.028Z,100029.03
2022-10-02T22:53:49.757Z,100017.09
2022-10-02T22:56:22.017Z,100023.44
2022-10-02T22:58:56.455Z,100017.72
2022-10-02T23:01:47.089Z,100022.72
2022-10-02T23:04:27.326Z,100031.53
2022-10-02T23:07:26.080Z,100030.13
2022-10-02T23:09:57.896Z,100027.00
2022-10-02T23:12:51.748Z,100032.50
2022-10-02T23:15:30.672Z,100030.34
2022-10-02T23:18:01.894Z,100025.41
2022-10-02T23:21:13.078Z,100013.06
2022-10-02T23:23:52.232Z,100019.00
2022-10-02T23:26:30.423Z,100025.06
2022-10-02T23:29:12.671Z,100016.75
2022-10-02T23:31:54.425Z,100001.50
2022-10-02T23:34:39.175Z,100018.88
2022-10-02T23:37:32.370Z,100023.31
2022-10-02T23:40:21.944Z,100007.69
2022-10-02T23:42:54.144Z,100031.53
2022-10-02T23:45:20.485Z,100025.09
2022-10-02T23:47:59.582Z,100026.41
2022-10-02T23:50:35.586Z,100027.00
2022-10-02T23:53:40.375Z,100022.22
2022-10-02T23:56:28.343Z,100012.56
2022-10-02T23:59:30.476Z,100017.53
